Shefford, Canada
Current Conditions -  °F | °C
As of 12:15 PM on Friday 24 Oct 2014 (Local Time) from KEFK Reporting Station
Overcast Overcast  
Wind Chill: 37°   Ceiling: 600
Heat Index: 42°   Visibility: 10mi
Dew Point: 41°   Wind: 8mph
Humidity: 97%   Direction: 340°NNW
Pressure: 29.8"   Gusts: NA
Location:  45.42°N, 72.58°W
Report Text: KEFK 241615Z AUTO 34007KT 10SM OVC006 05/05 A2980 RMK AO2 T00540049
Loading
Personal Weather Stations






























Interactive Weather Map
Tropical Storm Tracking
New forecast layout! Learn more

10-Day Weather Forecast

Advertisements
Track Severe Weather on mobile